Terminal Aerodrome Forecast
Issued by NWS

Home | Current Version | Previous Version | Text Only | Print | Product List | Glossary On
Versions: 1 2 3 4 5 6 7 8 9 10 11 12 13 14 15 16 17 18
000
FTUS45 KRIW 201139
TAFPNA
TAF
KPNA 201139Z 2012/2112 VRB04KT 5SM BR FEW003 SCT030
      TEMPO 2012/2015 3/4SM BR
     FM201700 31008KT P6SM SCT040
     FM210100 VRB05KT P6SM VCSH SCT025 OVC040
     FM210900 31004KT 3SM -SN SCT015 OVC030
      AMD LTD TO CLD VIS AND WIND=

USA.gov is the U.S. government's official web portal to all federal, state and local government web resources and services.